Albany, OK

9:13 PM CST on March 04, 2015 (GMT -0600)
Duplex, Texas | Change Station
CLOSE
Current Station
Personal Weather Station
Location: Ivanhoe, TX
Elevation: 617 ft
Nearby Weather Stations
Active Advisory: Winter Weather Advisory

Elev 617 ft 33.77 °N, 96.13 °W | Updated 7 seconds ago

Snow
Snow
27.2 °F
Feels Like 27 °F
N
0.0
Wind Variable Wind from NNE
Gusts 0.0 mph

Today
High -- | Low -- °F
--% Chance of Precip.
Yesterday
High -- | Low -- °F
Precip. -- in
6:49 AM 6:23 PM
Full, 100% visible
Pressure 30.21 in
Visibility 5.0 miles
Clouds Scattered Clouds 1200 ft
Overcast 9000 ft
Windchill 27 °F
Dew Point 25 °F
Humidity 91%
Rainfall 0.18 in
Snow Depth Not available.
UV 0.0 out of 12
Pollen .90 out of 12
Air Quality Not available.
Flu Activity Not available.
METAR KDUA 050255Z AUTO 02018G26KT 5SM -SN SCT012 OVC090 M02/M03 A3021 RMK AO2

More Conditions Fewer Conditions

Pressure 30.21 in
Visibility 5.0 miles
Clouds Scattered Clouds 1200 ft
Overcast 9000 ft
Windchill 27 °F
Dew Point 25 °F
Humidity 91%
Rainfall 0.18 in
Snow Depth Not available.
UV 0.0 out of 12
Pollen .90 out of 12
Air Quality Not available.
Flu Activity Not available.
METAR KDUA 050255Z AUTO 02018G26KT 5SM -SN SCT012 OVC090 M02/M03 A3021 RMK AO2

More Conditions Fewer Conditions

10-Day Weather Forecast

Almanac

Astronomy

Mar. 04, 2015 Rise Set
Actual Time
Civil Twilight
Nautical Twilight
Astronomical Twilight
Moon
Length of Visible Light
Length of Day
Tomorrow will be .
, % of the Moon is Illuminated

Today's Extremes

State Highs State Lows

Community

WunderPhotos

Upload Photos

1,802,643 photos uploaded!

WunderBlogs® & News

Nearby

Air Quality

  Air Quality AQ Index Pollutant
Not available.

Snow Depth

Station Depth Elevation

Earthquake Activity

City Distance Mag. Time & Date
Minimum magnitude displayed is 2.5.

Coastal Water Temperatures

Place Temperature

Nearby Weather Stations

Winter Weather Advisory
Statement as of 8:46 PM CST on March 04, 2015

... Winter Weather Advisory remains in effect until 4 am CST
Thursday...

A Winter Weather Advisory remains in effect until 4 am CST
Thursday.

* Snow and sleet accumulations: additional sleet accumulations
will be light with some areas picking up a quarter inch of
sleet. Snow accumulations of 1 to 2 inches are likely with
isolated heavier amounts.

* Main impact: slick and hazardous roadways are expected to
develop from accumulating sleet and snow. Visibility will also
decrease due to falling snow and sleet.

Precautionary/preparedness actions...

Be careful if you have to travel. Even small amounts of ice and
snow can make roads and sidewalks slick and dangerous.